createdAt,value
2023-05-06T00:02:10.655Z,18.52
2023-05-06T00:05:14.864Z,18.47
2023-05-06T00:08:18.767Z,18.68
2023-05-06T00:11:22.648Z,18.73
2023-05-06T00:14:26.778Z,18.56
2023-05-06T00:17:31.057Z,18.71
2023-05-06T00:20:35.030Z,18.08
2023-05-06T00:23:38.995Z,18.16
2023-05-06T00:26:43.018Z,18.21
2023-05-06T00:29:47.173Z,18.80
2023-05-06T00:32:51.167Z,18.67
2023-05-06T00:35:55.462Z,19.01
2023-05-06T00:38:59.241Z,19.39
2023-05-06T00:42:03.062Z,19.48
2023-05-06T00:45:07.515Z,19.41
2023-05-06T00:48:12.004Z,19.66
2023-05-06T00:51:16.034Z,19.61
2023-05-06T00:54:19.965Z,18.76
2023-05-06T00:57:23.813Z,18.43
2023-05-06T01:00:28.199Z,18.50
2023-05-06T01:03:32.241Z,18.23
2023-05-06T01:06:36.249Z,18.63
2023-05-06T01:09:41.242Z,18.93
2023-05-06T01:12:45.039Z,18.72
2023-05-06T01:15:49.161Z,19.26
2023-05-06T01:18:53.745Z,19.19
2023-05-06T01:21:57.599Z,18.90
2023-05-06T01:25:01.652Z,18.74
2023-05-06T01:28:05.722Z,19.03
2023-05-06T01:31:09.984Z,19.05
2023-05-06T01:34:13.933Z,19.09
2023-05-06T01:37:18.068Z,18.76
2023-05-06T01:40:22.074Z,18.70
2023-05-06T01:43:26.269Z,18.96
2023-05-06T01:46:30.637Z,19.01
2023-05-06T01:49:34.589Z,19.07
2023-05-06T01:52:38.362Z,18.85
2023-05-06T01:55:42.265Z,18.78
2023-05-06T01:58:46.310Z,18.37
2023-05-06T02:01:51.503Z,17.68
2023-05-06T02:04:55.687Z,17.56
2023-05-06T02:07:59.808Z,17.60
2023-05-06T02:11:03.776Z,17.55
2023-05-06T02:14:07.636Z,17.78
2023-05-06T02:17:13.276Z,17.85
2023-05-06T02:20:17.042Z,18.28
2023-05-06T02:23:20.707Z,18.03
2023-05-06T02:26:25.017Z,17.73
2023-05-06T02:29:28.865Z,17.81
2023-05-06T02:32:32.725Z,17.84
2023-05-06T02:35:36.841Z,17.87
2023-05-06T02:38:40.915Z,18.01
2023-05-06T02:41:44.632Z,18.10
2023-05-06T02:44:51.898Z,18.41
2023-05-06T02:47:55.845Z,18.45
2023-05-06T02:51:00.055Z,18.39
2023-05-06T02:54:04.105Z,18.32
2023-05-06T02:57:08.193Z,18.34
2023-05-06T03:00:12.344Z,18.31
2023-05-06T03:03:16.526Z,18.08
2023-05-06T03:06:21.884Z,18.15
2023-05-06T03:09:26.068Z,18.04
2023-05-06T03:12:30.256Z,17.94
2023-05-06T03:15:34.467Z,17.60
2023-05-06T03:18:38.290Z,17.44
2023-05-06T03:21:42.341Z,17.16
2023-05-06T03:24:46.026Z,17.49
2023-05-06T03:27:50.045Z,17.03
2023-05-06T03:30:54.138Z,16.84
2023-05-06T03:33:57.964Z,16.51
2023-05-06T03:37:02.010Z,16.73
2023-05-06T03:40:06.002Z,17.05
2023-05-06T03:43:10.172Z,17.31
2023-05-06T03:46:14.249Z,16.23
2023-05-06T03:49:18.208Z,16.50
2023-05-06T03:52:22.169Z,16.50
2023-05-06T03:55:26.483Z,16.88
2023-05-06T03:58:30.484Z,16.62
2023-05-06T04:01:34.759Z,16.64
2023-05-06T04:04:38.969Z,16.60
2023-05-06T04:07:43.338Z,16.77
2023-05-06T04:10:47.256Z,16.80
2023-05-06T04:13:51.146Z,16.81
2023-05-06T04:16:56.423Z,17.01
2023-05-06T04:20:00.439Z,16.96
2023-05-06T04:23:04.589Z,17.23
2023-05-06T04:26:08.442Z,16.58
2023-05-06T04:29:12.483Z,16.53
2023-05-06T04:32:16.138Z,16.65
2023-05-06T04:35:22.885Z,16.97
2023-05-06T04:38:27.095Z,16.27
2023-05-06T04:41:31.090Z,16.30
2023-05-06T04:44:35.089Z,16.09
2023-05-06T04:47:38.687Z,16.45
2023-05-06T04:50:42.745Z,17.01
2023-05-06T04:53:46.934Z,17.23
2023-05-06T04:56:50.686Z,17.39
2023-05-06T04:59:54.722Z,17.51
2023-05-06T05:02:58.810Z,17.45
2023-05-06T05:06:02.795Z,17.27
2023-05-06T05:09:06.690Z,17.58
2023-05-06T05:12:10.736Z,17.45
2023-05-06T05:15:14.622Z,17.14
2023-05-06T05:18:18.554Z,17.17
2023-05-06T05:21:23.065Z,17.54
2023-05-06T05:24:26.938Z,17.73
2023-05-06T05:27:30.908Z,17.78
2023-05-06T05:30:34.714Z,17.62
2023-05-06T05:33:38.839Z,17.37
2023-05-06T05:36:42.714Z,17.73
2023-05-06T05:39:46.830Z,17.91
2023-05-06T05:42:50.689Z,17.75
2023-05-06T05:45:54.854Z,18.20
2023-05-06T05:48:58.897Z,17.95
2023-05-06T05:52:03.155Z,17.80
2023-05-06T05:55:07.179Z,17.93
2023-05-06T05:58:10.874Z,18.18
2023-05-06T06:01:15.132Z,18.35
2023-05-06T06:04:19.228Z,18.50
2023-05-06T06:07:22.964Z,18.60
2023-05-06T06:10:27.045Z,18.54
2023-05-06T06:13:31.060Z,18.65
2023-05-06T06:16:38.201Z,18.70
2023-05-06T06:19:42.246Z,18.69
2023-05-06T06:22:46.278Z,18.44
2023-05-06T06:25:50.102Z,18.30
2023-05-06T06:28:54.074Z,17.70
2023-05-06T06:31:58.130Z,17.82
2023-05-06T06:35:02.192Z,17.64
2023-05-06T06:38:06.287Z,18.15
2023-05-06T06:41:10.037Z,18.71
2023-05-06T06:44:13.906Z,18.52
2023-05-06T06:47:17.885Z,18.96
2023-05-06T06:50:22.009Z,18.95
2023-05-06T06:53:25.927Z,19.27
2023-05-06T06:56:29.872Z,18.53
2023-05-06T06:59:33.765Z,18.57
2023-05-06T07:02:37.712Z,19.02
2023-05-06T07:05:41.671Z,18.88
2023-05-06T07:08:45.570Z,19.36
2023-05-06T07:11:49.378Z,19.46
2023-05-06T07:14:53.406Z,19.55
2023-05-06T07:17:57.564Z,19.11
2023-05-06T07:21:01.495Z,19.31
2023-05-06T07:24:05.538Z,19.04
2023-05-06T07:27:09.790Z,19.32
2023-05-06T07:30:13.883Z,19.41
2023-05-06T07:33:17.677Z,19.34
2023-05-06T07:36:21.641Z,19.28
2023-05-06T07:39:26.013Z,18.97
2023-05-06T07:42:30.084Z,18.81
2023-05-06T07:45:34.028Z,19.49
2023-05-06T07:48:38.131Z,19.79
2023-05-06T07:51:41.829Z,19.31
2023-05-06T07:54:46.968Z,19.54
2023-05-06T07:57:51.328Z,19.78
2023-05-06T08:00:55.329Z,19.76
2023-05-06T08:03:59.219Z,19.82
2023-05-06T08:07:03.190Z,20.07
2023-05-06T08:10:07.316Z,19.81
2023-05-06T08:13:12.017Z,19.67
2023-05-06T08:16:15.800Z,20.15
2023-05-06T08:19:19.721Z,20.27
2023-05-06T08:22:23.469Z,20.31
2023-05-06T08:25:28.798Z,20.34
2023-05-06T08:28:32.744Z,20.35
2023-05-06T08:31:36.729Z,20.57
2023-05-06T08:34:40.755Z,20.39
2023-05-06T08:37:45.040Z,20.52
2023-05-06T08:40:48.892Z,20.58
2023-05-06T08:43:53.071Z,20.80
2023-05-06T08:46:57.009Z,20.59
2023-05-06T08:50:01.143Z,20.80
2023-05-06T08:53:05.363Z,20.95
2023-05-06T08:56:09.385Z,21.04
2023-05-06T08:59:13.545Z,21.08
2023-05-06T09:02:17.484Z,21.00
2023-05-06T09:05:21.515Z,21.17
2023-05-06T09:08:25.443Z,20.20
2023-05-06T09:11:29.582Z,20.96
2023-05-06T09:14:33.460Z,21.23
2023-05-06T09:17:37.708Z,21.32
2023-05-06T09:20:41.660Z,21.43
2023-05-06T09:23:46.166Z,20.96
2023-05-06T09:26:49.776Z,21.39
2023-05-06T09:29:53.706Z,21.25
2023-05-06T09:32:57.590Z,21.93
2023-05-06T09:36:01.914Z,21.41
2023-05-06T09:39:05.971Z,21.68
2023-05-06T09:42:09.935Z,21.82
2023-05-06T09:45:15.690Z,21.27
2023-05-06T09:48:19.644Z,20.60
2023-05-06T09:51:23.711Z,21.29
2023-05-06T09:54:27.945Z,21.74
2023-05-06T09:57:31.592Z,21.85
2023-05-06T10:00:35.438Z,21.66
2023-05-06T10:03:39.756Z,21.45
2023-05-06T10:06:43.862Z,21.54
2023-05-06T10:09:47.645Z,21.58
2023-05-06T10:12:51.608Z,21.40
2023-05-06T10:15:55.866Z,21.17
2023-05-06T10:18:59.849Z,21.30
2023-05-06T10:22:05.593Z,21.43
2023-05-06T10:25:10.087Z,21.57
2023-05-06T10:28:16.478Z,21.67
2023-05-06T10:31:29.011Z,21.92
2023-05-06T10:34:33.951Z,21.45
2023-05-06T10:37:37.924Z,21.84
2023-05-06T10:40:41.851Z,21.13
2023-05-06T10:43:45.913Z,21.73
2023-05-06T10:46:50.058Z,22.17
2023-05-06T10:49:54.044Z,22.35
2023-05-06T10:52:58.034Z,22.47
2023-05-06T10:56:01.881Z,22.63
2023-05-06T10:59:06.174Z,22.61
2023-05-06T11:02:10.313Z,22.35
2023-05-06T11:05:13.817Z,22.61
2023-05-06T11:08:17.830Z,22.57
2023-05-06T11:11:22.075Z,22.73
2023-05-06T11:14:25.945Z,22.76
2023-05-06T11:17:30.019Z,22.83
2023-05-06T11:20:33.623Z,23.09
2023-05-06T11:23:37.637Z,22.18
2023-05-06T11:26:41.636Z,22.61
2023-05-06T11:29:45.711Z,22.75
2023-05-06T11:32:52.988Z,22.11
2023-05-06T11:35:57.103Z,22.28
2023-05-06T11:39:05.355Z,22.65
2023-05-06T11:42:09.266Z,22.20
2023-05-06T11:45:13.355Z,22.30
2023-05-06T11:48:17.603Z,22.11
2023-05-06T11:51:21.838Z,23.00
2023-05-06T11:54:25.768Z,23.48
2023-05-06T11:57:29.770Z,23.63
2023-05-06T12:00:33.940Z,23.79
2023-05-06T12:03:38.099Z,23.83
2023-05-06T12:06:42.000Z,23.81
2023-05-06T12:09:46.005Z,22.83
2023-05-06T12:12:49.938Z,22.71
2023-05-06T12:15:54.216Z,23.29
2023-05-06T12:18:57.933Z,23.25
2023-05-06T12:22:01.835Z,22.77
2023-05-06T12:25:09.303Z,22.83
2023-05-06T12:28:13.406Z,22.73
2023-05-06T12:31:19.586Z,23.03
2023-05-06T12:34:23.615Z,23.39
2023-05-06T12:37:27.788Z,23.58
2023-05-06T12:40:31.514Z,23.15
2023-05-06T12:43:35.713Z,22.98
2023-05-06T12:46:39.830Z,23.23
2023-05-06T12:49:43.842Z,23.45
2023-05-06T12:52:47.740Z,23.17
2023-05-06T12:55:51.475Z,23.07
2023-05-06T12:58:55.381Z,23.49
2023-05-06T13:01:59.607Z,23.71
2023-05-06T13:05:03.356Z,23.61
2023-05-06T13:08:07.339Z,23.76
2023-05-06T13:11:11.254Z,24.40
2023-05-06T13:14:15.422Z,24.52
2023-05-06T13:17:19.857Z,24.60
2023-05-06T13:20:24.047Z,24.82
2023-05-06T13:23:27.901Z,24.81
2023-05-06T13:26:31.886Z,24.68
2023-05-06T13:29:36.252Z,24.58
2023-05-06T13:32:40.308Z,24.67
2023-05-06T13:35:44.078Z,24.69
2023-05-06T13:38:48.229Z,24.76
2023-05-06T13:41:53.891Z,24.13
2023-05-06T13:44:58.464Z,24.50
2023-05-06T13:48:03.016Z,24.74
2023-05-06T13:51:06.990Z,25.11
2023-05-06T13:54:10.593Z,25.15
2023-05-06T13:57:14.455Z,24.60
2023-05-06T14:00:18.119Z,25.06
2023-05-06T14:03:23.466Z,25.11
2023-05-06T14:06:27.307Z,25.34
2023-05-06T14:09:31.300Z,25.15
2023-05-06T14:12:35.457Z,25.06
2023-05-06T14:15:39.530Z,25.15
2023-05-06T14:18:43.687Z,25.27
2023-05-06T14:21:47.960Z,25.32
2023-05-06T14:24:51.874Z,25.32
2023-05-06T14:27:56.120Z,24.83
2023-05-06T14:31:00.351Z,24.93
2023-05-06T14:34:04.325Z,24.47
2023-05-06T14:37:08.160Z,23.95
2023-05-06T14:40:12.371Z,23.67
2023-05-06T14:43:16.409Z,23.45
2023-05-06T14:46:20.471Z,23.34
2023-05-06T14:49:24.318Z,23.82
2023-05-06T14:52:28.242Z,23.86
2023-05-06T14:55:32.426Z,23.61
2023-05-06T14:58:36.095Z,23.29
2023-05-06T15:01:39.643Z,23.58
2023-05-06T15:04:43.593Z,23.65
2023-05-06T15:07:47.839Z,23.58
2023-05-06T15:10:52.220Z,23.07
2023-05-06T15:13:56.686Z,22.62
2023-05-06T15:17:00.704Z,23.08
2023-05-06T15:20:04.556Z,22.88
2023-05-06T15:23:08.756Z,23.04
2023-05-06T15:26:13.084Z,23.53
2023-05-06T15:29:17.091Z,24.16
2023-05-06T15:32:21.048Z,24.38
2023-05-06T15:35:25.142Z,24.61
2023-05-06T15:38:29.281Z,24.44
2023-05-06T15:41:33.376Z,23.96
2023-05-06T15:44:37.643Z,23.81
2023-05-06T15:47:41.795Z,24.09
2023-05-06T15:50:47.322Z,24.14
2023-05-06T15:53:51.501Z,23.59
2023-05-06T15:56:55.810Z,23.67
2023-05-06T15:59:59.657Z,23.80
2023-05-06T16:03:07.283Z,23.84
2023-05-06T16:06:12.586Z,23.84
2023-05-06T16:09:16.594Z,23.84
2023-05-06T16:12:20.594Z,24.01
2023-05-06T16:15:24.374Z,23.25
2023-05-06T16:18:29.375Z,23.60
2023-05-06T16:21:33.330Z,23.67
2023-05-06T16:24:37.399Z,23.81
2023-05-06T16:27:41.538Z,23.71
2023-05-06T16:30:45.801Z,23.59
2023-05-06T16:33:49.410Z,23.06
2023-05-06T16:36:53.577Z,22.37
2023-05-06T16:39:57.863Z,22.39
2023-05-06T16:43:11.641Z,23.18
2023-05-06T16:45:56.611Z,22.99
2023-05-06T16:49:04.807Z,22.80
2023-05-06T17:02:56.740Z,22.70
2023-05-06T17:20:55.073Z,22.89
2023-05-06T17:29:37.703Z,23.37
2023-05-06T19:17:38.805Z,20.80
2023-05-06T19:20:43.797Z,20.75
2023-05-06T19:27:14.736Z,20.65
2023-05-06T19:30:19.357Z,20.84
2023-05-06T19:36:47.340Z,20.36
2023-05-06T19:39:51.462Z,20.50
2023-05-06T19:42:56.723Z,20.61
2023-05-06T19:46:00.928Z,20.60
2023-05-06T19:49:05.359Z,20.64
2023-05-06T19:52:13.614Z,20.29
2023-05-06T19:55:17.808Z,20.34
2023-05-06T19:58:22.056Z,20.22
2023-05-06T20:01:26.943Z,20.11
2023-05-06T20:04:32.339Z,20.55
2023-05-06T20:07:36.265Z,20.49
2023-05-06T20:10:45.599Z,20.33
2023-05-06T20:13:50.205Z,20.08
2023-05-06T20:16:54.885Z,19.96
2023-05-06T20:19:59.085Z,20.42
2023-05-06T20:23:03.245Z,20.03
2023-05-06T20:26:07.456Z,20.50
2023-05-06T20:29:11.310Z,20.36
2023-05-06T20:32:15.886Z,20.10
2023-05-06T20:35:20.012Z,19.94
2023-05-06T20:38:25.532Z,19.90
2023-05-06T20:41:34.024Z,19.85
2023-05-06T20:44:37.984Z,19.57
2023-05-06T20:47:41.877Z,20.04
2023-05-06T20:50:46.290Z,20.08
2023-05-06T20:53:50.470Z,19.89
2023-05-06T20:56:57.488Z,20.09
2023-05-06T21:00:01.447Z,19.79
2023-05-06T21:03:07.837Z,19.72
2023-05-06T21:06:11.656Z,19.51
2023-05-06T21:09:17.244Z,19.47
2023-05-06T21:12:21.137Z,19.65
2023-05-06T21:15:25.237Z,19.08
2023-05-06T21:18:32.704Z,19.08
2023-05-06T21:21:37.057Z,18.69
2023-05-06T21:24:42.214Z,18.66
2023-05-06T21:27:50.470Z,18.96
2023-05-06T21:30:54.084Z,18.90
2023-05-06T21:33:57.981Z,18.88
2023-05-06T21:37:08.481Z,19.05
2023-05-06T21:40:12.761Z,18.54
2023-05-06T21:43:17.458Z,18.73
2023-05-06T21:46:24.414Z,18.81
2023-05-06T21:49:28.092Z,18.80
2023-05-06T21:52:32.060Z,18.60
2023-05-06T21:55:35.891Z,18.49
2023-05-06T21:58:39.944Z,18.80
2023-05-06T22:01:43.840Z,18.93
2023-05-06T22:04:47.570Z,18.97
2023-05-06T22:07:51.491Z,19.19
2023-05-06T22:10:55.812Z,19.23
2023-05-06T22:14:00.353Z,18.79
2023-05-06T22:17:06.030Z,18.55
2023-05-06T22:20:10.376Z,18.52
2023-05-06T22:23:14.163Z,18.34
2023-05-06T22:26:18.211Z,18.24
2023-05-06T22:29:22.106Z,18.57
2023-05-06T22:32:25.953Z,18.32
2023-05-06T22:35:30.077Z,18.59
2023-05-06T22:38:33.941Z,18.48
2023-05-06T22:41:37.983Z,18.54
2023-05-06T22:44:41.859Z,18.42
2023-05-06T22:47:45.736Z,18.49
2023-05-06T22:54:18.034Z,18.25
2023-05-06T22:57:22.789Z,18.49
2023-05-06T23:00:27.532Z,18.75
2023-05-06T23:03:31.982Z,18.89
2023-05-06T23:06:36.336Z,17.94
2023-05-06T23:09:40.091Z,18.00
2023-05-06T23:12:47.186Z,18.00
2023-05-06T23:15:50.931Z,18.46
2023-05-06T23:18:54.898Z,18.37
2023-05-06T23:21:58.880Z,18.63
2023-05-06T23:25:02.866Z,18.32
2023-05-06T23:28:06.491Z,18.15
2023-05-06T23:31:10.586Z,18.37
2023-05-06T23:34:14.227Z,18.31
2023-05-06T23:37:19.496Z,17.82
2023-05-06T23:40:23.511Z,17.83
2023-05-06T23:43:27.443Z,17.96
2023-05-06T23:46:31.476Z,17.62
2023-05-06T23:49:35.531Z,17.15
2023-05-06T23:52:39.501Z,17.37
2023-05-06T23:55:47.073Z,17.57
2023-05-06T23:58:51.347Z,17.74
